createdAt,value
2022-12-15T00:04:53.389Z,95541.94
2022-12-15T00:10:33.084Z,95547.16
2022-12-15T00:16:12.385Z,95550.53
2022-12-15T00:21:51.761Z,95542.97
2022-12-15T00:27:31.022Z,95546.63
2022-12-15T00:33:10.630Z,95542.97
2022-12-15T00:38:44.238Z,95559.00
2022-12-15T00:44:05.316Z,95568.16
2022-12-15T00:49:47.336Z,95572.38
2022-12-15T00:55:27.202Z,95567.09
2022-12-15T01:01:06.614Z,95580.59
2022-12-15T01:06:45.732Z,95588.28
2022-12-15T01:12:25.135Z,95604.16
2022-12-15T01:18:04.618Z,95608.25
2022-12-15T01:23:26.220Z,95603.88
2022-12-15T01:28:47.065Z,95604.72
2022-12-15T01:34:07.796Z,95605.66
2022-12-15T01:39:48.319Z,95601.44
2022-12-15T01:45:24.376Z,95607.06
2022-12-15T01:51:31.818Z,95608.69
2022-12-15T01:57:03.129Z,95613.25
2022-12-15T02:02:27.104Z,95633.72
2022-12-15T02:07:48.231Z,95633.31
2022-12-15T02:13:29.080Z,95642.34
2022-12-15T02:19:34.396Z,95645.16
2022-12-15T02:25:11.543Z,95643.97
2022-12-15T02:30:45.020Z,95648.50
2022-12-15T02:36:47.654Z,95670.09
2022-12-15T02:42:10.767Z,95683.88
2022-12-15T02:47:46.324Z,95682.44
2022-12-15T02:53:10.501Z,95681.38
2022-12-15T02:58:47.025Z,95686.09
2022-12-15T03:04:10.330Z,95691.75
2022-12-15T03:09:31.936Z,95685.59
2022-12-15T03:14:52.463Z,95697.50
2022-12-15T03:20:13.293Z,95701.03
2022-12-15T03:25:33.959Z,95717.41
2022-12-15T03:30:54.720Z,95736.09
2022-12-15T03:36:15.322Z,95730.91
2022-12-15T03:41:36.143Z,95740.50
2022-12-15T03:47:02.775Z,95739.75
2022-12-15T03:52:24.236Z,95759.66
2022-12-15T03:57:45.284Z,95748.94
2022-12-15T04:03:06.275Z,95755.91
2022-12-15T04:08:27.046Z,95761.59
2022-12-15T04:13:48.040Z,95764.00
2022-12-15T04:19:27.679Z,95784.00
2022-12-15T04:25:06.929Z,95790.22
2022-12-15T04:30:46.246Z,95782.06
2022-12-15T04:36:29.000Z,95787.75
2022-12-15T04:42:08.814Z,95794.22
2022-12-15T04:47:47.936Z,95800.09
2022-12-15T04:53:33.555Z,95790.03
2022-12-15T04:59:13.522Z,95810.84
2022-12-15T05:04:52.788Z,95819.63
2022-12-15T05:10:32.032Z,95816.63
2022-12-15T05:16:11.792Z,95833.41
2022-12-15T05:21:51.048Z,95828.72
2022-12-15T05:27:30.313Z,95833.22
2022-12-15T05:32:51.059Z,95854.38
2022-12-15T05:38:11.726Z,95861.44
2022-12-15T05:43:32.605Z,95865.53
2022-12-15T05:48:53.512Z,95881.50
2022-12-15T05:54:17.747Z,95879.00
2022-12-15T05:59:38.496Z,95889.28
2022-12-15T06:04:59.160Z,95889.44
2022-12-15T06:10:19.859Z,95889.75
2022-12-15T06:15:40.741Z,95899.34
2022-12-15T06:21:07.215Z,95910.56
2022-12-15T06:26:34.467Z,95932.88
2022-12-15T06:31:55.536Z,95937.81
2022-12-15T06:37:16.594Z,95936.91
2022-12-15T06:42:37.260Z,95937.84
2022-12-15T06:48:01.467Z,95956.19
2022-12-15T06:53:24.169Z,95949.28
2022-12-15T06:58:44.793Z,95961.47
2022-12-15T07:04:05.786Z,95974.19
2022-12-15T07:09:27.645Z,95979.59
2022-12-15T07:14:53.322Z,95998.81
2022-12-15T07:20:14.361Z,95992.44
2022-12-15T07:25:39.339Z,95982.38
2022-12-15T07:31:05.728Z,95982.50
2022-12-15T07:36:27.810Z,96004.28
2022-12-15T07:41:48.471Z,96002.91
2022-12-15T07:47:10.240Z,96005.41
2022-12-15T07:52:31.204Z,96006.06
2022-12-15T07:57:52.199Z,96017.63
2022-12-15T08:03:13.117Z,96028.44
2022-12-15T08:08:35.037Z,96031.88
2022-12-15T08:14:05.610Z,96047.19
2022-12-15T08:19:28.413Z,96058.44
2022-12-15T08:24:49.051Z,96059.25
2022-12-15T08:30:10.251Z,96035.50
2022-12-15T08:35:55.818Z,96042.50
2022-12-15T08:41:14.845Z,96061.97
2022-12-15T08:46:35.837Z,96067.53
2022-12-15T08:51:56.561Z,96064.91
2022-12-15T08:57:17.209Z,96051.22
2022-12-15T09:02:38.098Z,96077.97
2022-12-15T09:08:04.603Z,96073.50
2022-12-15T09:13:28.305Z,96083.81
2022-12-15T09:18:52.823Z,96077.34
2022-12-15T09:24:20.651Z,96078.06
2022-12-15T09:29:46.961Z,96067.16
2022-12-15T09:35:07.863Z,96067.06
2022-12-15T09:40:28.948Z,96073.88
2022-12-15T09:46:12.752Z,96087.13
2022-12-15T09:51:38.837Z,96088.53
2022-12-15T09:57:08.025Z,96100.59
2022-12-15T10:02:47.282Z,96115.81
2022-12-15T10:08:11.032Z,96117.88
2022-12-15T10:13:40.612Z,96105.78
2022-12-15T10:19:02.271Z,96108.66
2022-12-15T10:24:59.695Z,96114.19
2022-12-15T10:30:05.269Z,96121.28
2022-12-15T10:35:30.418Z,96118.00
2022-12-15T10:41:12.958Z,96105.47
2022-12-15T10:46:33.832Z,96103.97
2022-12-15T10:52:00.578Z,96085.47
2022-12-15T10:57:31.561Z,96079.91
2022-12-15T11:02:52.834Z,96076.31
2022-12-15T11:08:17.469Z,96073.94
2022-12-15T11:13:39.527Z,96072.72
2022-12-15T11:19:36.425Z,96061.81
2022-12-15T11:25:05.632Z,96052.09
2022-12-15T11:30:33.226Z,96057.69
2022-12-15T11:36:32.932Z,96053.47
2022-12-15T11:42:25.186Z,96042.88
2022-12-15T11:48:21.444Z,96045.25
2022-12-15T11:53:56.252Z,96046.09
2022-12-15T11:59:42.030Z,96062.00
2022-12-15T12:05:27.070Z,96053.50
2022-12-15T12:11:07.485Z,96058.50
2022-12-15T12:16:54.870Z,96050.53
2022-12-15T12:22:25.959Z,96050.44
2022-12-15T12:27:55.433Z,96045.31
2022-12-15T12:33:39.761Z,96048.28
2022-12-15T12:39:01.379Z,96036.03
2022-12-15T12:44:37.585Z,96046.47
2022-12-15T12:50:06.884Z,96050.53
2022-12-15T12:55:41.394Z,96044.63
2022-12-15T13:01:05.594Z,96044.63
2022-12-15T13:06:35.337Z,96055.38
2022-12-15T13:12:03.218Z,96051.06
2022-12-15T13:17:42.029Z,96055.47
2022-12-15T13:23:21.355Z,96079.91
2022-12-15T13:28:45.945Z,96093.72
2022-12-15T13:34:17.992Z,96089.59
2022-12-15T13:39:54.963Z,96093.00
2022-12-15T13:45:43.568Z,96099.50
2022-12-15T13:51:18.382Z,96086.69
2022-12-15T13:56:51.697Z,96084.81
2022-12-15T14:02:29.965Z,96087.03
2022-12-15T14:07:58.333Z,96079.34
2022-12-15T14:13:24.559Z,96072.56
2022-12-15T14:19:02.161Z,96081.00
2022-12-15T14:24:40.837Z,96077.97
2022-12-15T14:30:25.656Z,96075.47
2022-12-15T14:35:50.230Z,96054.41
2022-12-15T14:41:25.087Z,96067.69
2022-12-15T14:46:47.605Z,96067.13
2022-12-15T14:52:26.054Z,96076.66
2022-12-15T14:57:47.925Z,96078.50
2022-12-15T15:03:26.271Z,96083.78
2022-12-15T15:08:52.702Z,96087.06
2022-12-15T15:14:19.142Z,96080.97
2022-12-15T15:19:53.418Z,96087.31
2022-12-15T15:25:39.352Z,96086.75
2022-12-15T15:31:06.916Z,96077.22
2022-12-15T15:36:36.421Z,96073.75
2022-12-15T15:41:57.190Z,96064.88
2022-12-15T15:47:25.192Z,96078.97
2022-12-15T15:52:45.952Z,96084.56
2022-12-15T15:58:16.151Z,96065.28
2022-12-15T16:03:37.257Z,96071.97
2022-12-15T16:08:58.270Z,96079.00
2022-12-15T16:14:19.106Z,96096.00
2022-12-15T16:19:40.073Z,96091.69
2022-12-15T16:25:01.892Z,96084.59
2022-12-15T16:30:25.830Z,96074.75
2022-12-15T16:35:49.944Z,96090.00
2022-12-15T16:41:16.397Z,96089.25
2022-12-15T16:46:37.779Z,96114.69
2022-12-15T16:51:59.074Z,96114.38
2022-12-15T16:57:20.343Z,96116.03
2022-12-15T17:02:42.129Z,96111.91
2022-12-15T17:08:06.617Z,96123.03
2022-12-15T17:13:41.893Z,96109.47
2022-12-15T17:19:04.438Z,96120.66
2022-12-15T17:24:25.443Z,96109.75
2022-12-15T17:29:46.488Z,96109.69
2022-12-15T17:35:08.088Z,96120.38
2022-12-15T17:40:29.599Z,96117.84
2022-12-15T17:46:16.090Z,96100.44
2022-12-15T17:51:37.588Z,96098.66
2022-12-15T17:56:58.734Z,96096.88
2022-12-15T18:02:19.760Z,96087.94
2022-12-15T18:07:41.154Z,96084.59
2022-12-15T18:13:02.334Z,96090.16
2022-12-15T18:18:24.330Z,96099.50
2022-12-15T18:23:47.553Z,96098.03
2022-12-15T18:29:17.986Z,96092.03
2022-12-15T18:34:38.957Z,96096.78
2022-12-15T18:40:04.492Z,96101.59
2022-12-15T18:45:28.416Z,96088.34
2022-12-15T18:50:54.671Z,96087.38
2022-12-15T18:56:18.169Z,96088.88
2022-12-15T19:01:39.300Z,96083.56
2022-12-15T19:07:06.604Z,96077.25
2022-12-15T19:12:27.680Z,96065.94
2022-12-15T19:18:06.849Z,96054.47
2022-12-15T19:23:28.908Z,96039.16
2022-12-15T19:28:49.956Z,96036.78
2022-12-15T19:34:11.034Z,96024.59
2022-12-15T19:39:35.203Z,96014.41
2022-12-15T19:44:55.873Z,96013.13
2022-12-15T19:50:25.197Z,96008.53
2022-12-15T19:55:46.128Z,96012.06
2022-12-15T20:01:10.864Z,96012.97
2022-12-15T20:06:34.118Z,96012.84
2022-12-15T20:11:55.129Z,96010.72
2022-12-15T20:17:15.735Z,96009.13
2022-12-15T20:22:36.530Z,95999.97
2022-12-15T20:28:00.326Z,95999.03
2022-12-15T20:33:21.183Z,95990.09
2022-12-15T20:38:43.067Z,95977.41
2022-12-15T20:44:07.036Z,95972.50
2022-12-15T20:49:30.521Z,95965.22
2022-12-15T20:54:53.210Z,95958.59
2022-12-15T21:00:14.747Z,95942.78
2022-12-15T21:05:35.473Z,95928.47
2022-12-15T21:11:01.316Z,95914.44
2022-12-15T21:16:28.144Z,95922.28
2022-12-15T21:21:54.924Z,95917.44
2022-12-15T21:27:19.244Z,95912.34
2022-12-15T21:32:40.026Z,95913.03
2022-12-15T21:38:01.173Z,95929.91
2022-12-15T21:43:26.585Z,95927.53
2022-12-15T21:49:06.187Z,95935.22
2022-12-15T21:54:32.603Z,95934.50
2022-12-15T21:59:53.179Z,95939.78
2022-12-15T22:05:16.905Z,95942.81
2022-12-15T22:10:39.308Z,95931.19
2022-12-15T22:16:00.022Z,95942.47
2022-12-15T22:21:20.752Z,95940.88
2022-12-15T22:26:41.863Z,95927.25
2022-12-15T22:32:05.768Z,95907.16
2022-12-15T22:37:27.104Z,95902.44
2022-12-15T22:42:53.633Z,95902.81
2022-12-15T22:48:16.588Z,95899.59
2022-12-15T22:53:37.283Z,95909.31
2022-12-15T22:59:03.110Z,95900.63
2022-12-15T23:04:24.921Z,95899.06
2022-12-15T23:09:45.824Z,95887.13
2022-12-15T23:15:25.503Z,95879.72
2022-12-15T23:20:46.145Z,95864.13
2022-12-15T23:26:07.026Z,95873.22
2022-12-15T23:31:27.818Z,95875.72
2022-12-15T23:36:48.441Z,95872.19
2022-12-15T23:42:10.999Z,95853.31
2022-12-15T23:47:31.977Z,95852.00
2022-12-15T23:52:52.893Z,95852.69
2022-12-15T23:58:15.559Z,95858.00
